Time;durP1;ratioP1;P1;durP2;ratioP2;P2;SDS_P1;SDS_P2;PMS_P1;PMS_P2;Temp;Humidity;BMP_temperature;BMP_pressure;BME280_temperature;BME280_humidity;BME280_pressure;Samples;Min_cycle;Max_cycle;Signal;HPM_P1;HPM_P2
2022/12/28 00:02:19;;;;;;;40.95;16.08;;;;;;;3.79;100.00;100945.53;5021108;28;20114;-76
2022/12/28 00:04:45;;;;;;;32.55;17.20;;;;;;;3.78;100.00;100927.97;5013784;28;20073;-76
2022/12/28 00:07:10;;;;;;;32.03;15.65;;;;;;;3.78;100.00;100927.97;4996740;28;20076;-76
2022/12/28 00:09:36;;;;;;;33.70;16.23;;;;;;;3.82;100.00;100920.69;4992423;28;20260;-76
2022/12/28 00:12:01;;;;;;;29.27;14.73;;;;;;;3.82;100.00;100902.19;4989322;28;20289;-76
2022/12/28 00:14:26;;;;;;;34.20;14.53;;;;;;;3.80;100.00;100893.53;5007273;28;20074;-76
2022/12/28 00:16:52;;;;;;;30.07;14.13;;;;;;;3.84;100.00;100896.78;4989090;28;20037;-76
2022/12/28 00:19:17;;;;;;;28.40;14.13;;;;;;;3.90;100.00;100888.41;4990326;28;20017;-76
2022/12/28 00:21:43;;;;;;;29.47;15.47;;;;;;;3.79;100.00;100861.00;5026524;28;20893;-76
2022/12/28 00:24:27;;;;;;;;;;;;;;;3.88;100.00;100877.94;5025942;28;20303;-76
2022/12/28 00:26:55;;;;;;;31.77;15.05;;;;;;;3.84;100.00;100873.88;5022219;28;20390;-76
2022/12/28 00:29:21;;;;;;;27.13;15.27;;;;;;;3.89;100.00;100869.06;5017488;28;20558;-76
2022/12/28 00:31:46;;;;;;;30.88;14.05;;;;;;;3.94;100.00;100874.00;4992395;28;20117;-76
2022/12/28 00:34:12;;;;;;;30.88;14.02;;;;;;;3.97;100.00;100873.75;5009057;28;20127;-76
2022/12/28 00:36:39;;;;;;;27.25;12.82;;;;;;;3.94;100.00;100868.72;5025332;28;20037;-76
2022/12/28 00:39:04;;;;;;;28.80;13.18;;;;;;;3.96;100.00;100856.25;4992803;28;20032;-76
2022/12/28 00:41:32;;;;;;;33.70;15.98;;;;;;;3.97;100.00;100850.81;5024949;28;20041;-77
2022/12/28 00:43:57;;;;;;;24.17;12.73;;;;;;;4.01;100.00;100843.53;5025394;28;20864;-76
2022/12/28 00:46:24;;;;;;;22.92;11.93;;;;;;;3.98;100.00;100833.16;5004764;28;20283;-77
2022/12/28 00:48:49;;;;;;;25.73;11.57;;;;;;;3.97;100.00;100821.75;5025226;28;20044;-77
2022/12/28 00:51:18;;;;;;;28.23;11.93;;;;;;;4.04;100.00;100822.13;4998599;28;20044;-76
2022/12/28 00:53:44;;;;;;;27.80;12.73;;;;;;;4.07;100.00;100815.78;5007088;28;20050;-77
2022/12/28 00:56:13;;;;;;;29.52;11.85;;;;;;;4.05;100.00;100801.84;4992674;28;20021;-76
2022/12/28 00:58:38;;;;;;;28.15;10.25;;;;;;;4.01;100.00;100801.25;5024888;28;20076;-76
2022/12/28 01:01:05;;;;;;;27.13;11.27;;;;;;;4.06;100.00;100793.78;5024792;28;20061;-76
2022/12/28 01:03:31;;;;;;;20.77;9.65;;;;;;;4.12;100.00;100781.91;5021251;28;20287;-76
2022/12/28 01:05:56;;;;;;;20.00;10.57;;;;;;;4.10;100.00;100763.53;5016682;28;20041;-76
2022/12/28 01:08:22;;;;;;;17.70;10.17;;;;;;;4.13;100.00;100758.00;5024542;28;20022;-76
2022/12/28 01:10:48;;;;;;;;;;;;;;;4.08;100.00;100733.75;5004085;28;20112;-76
2022/12/28 01:13:13;;;;;;;19.38;8.60;;;;;;;4.19;100.00;100730.25;5005159;28;20009;-76
2022/12/28 01:15:39;;;;;;;16.00;8.95;;;;;;;4.22;100.00;100722.09;4991730;28;20068;-76
2022/12/28 01:18:04;;;;;;;14.60;7.43;;;;;;;4.26;100.00;100710.31;5025213;28;20061;-76
2022/12/28 01:20:31;;;;;;;18.60;8.90;;;;;;;4.32;100.00;100693.13;5024569;28;20036;-76
2022/12/28 01:22:56;;;;;;;13.77;7.43;;;;;;;4.26;100.00;100672.47;5008484;28;20068;-76
2022/12/28 01:25:22;;;;;;;17.53;6.80;;;;;;;4.30;100.00;100672.09;5017897;28;20044;-76
2022/12/28 01:27:47;;;;;;;21.58;7.50;;;;;;;4.30;100.00;100663.31;5006094;28;20254;-76
2022/12/28 01:30:13;;;;;;;10.37;6.50;;;;;;;4.29;100.00;100640.53;5005430;28;20578;-76
2022/12/28 01:32:39;;;;;;;17.52;5.75;;;;;;;4.27;100.00;100632.72;4989648;28;20280;-76
2022/12/28 01:35:06;;;;;;;13.23;5.72;;;;;;;4.30;100.00;100624.53;5025829;28;20040;-76
2022/12/28 01:37:32;;;;;;;16.55;5.80;;;;;;;4.34;100.00;100610.09;5008134;28;20036;-76
2022/12/28 01:39:58;;;;;;;17.33;5.60;;;;;;;4.31;100.00;100580.41;4988707;28;20423;-76
2022/12/28 01:42:25;;;;;;;16.02;6.40;;;;;;;4.35;100.00;100571.28;5004139;28;20076;-76
2022/12/28 01:44:51;;;;;;;11.82;4.40;;;;;;;4.29;100.00;100555.94;5025691;28;20116;-76
2022/12/28 01:47:27;;;;;;;7.93;3.97;;;;;;;4.31;100.00;100548.69;5025900;28;20037;-76
2022/12/28 01:49:58;;;;;;;14.93;4.18;;;;;;;4.30;100.00;100537.31;5023220;28;20053;-76
2022/12/28 01:52:40;;;;;;;13.85;5.03;;;;;;;4.25;100.00;100522.81;4988475;28;20046;-76
2022/12/28 01:55:18;;;;;;;10.88;3.20;;;;;;;4.33;100.00;100526.50;4988190;28;20119;-77
2022/12/28 01:57:53;;;;;;;13.80;3.63;;;;;;;4.28;100.00;100504.88;4990245;28;20034;-77
2022/12/28 02:00:19;;;;;;;14.80;4.57;;;;;;;4.29;100.00;100503.09;5001682;28;20053;-76
2022/12/28 02:02:51;;;;;;;16.67;5.03;;;;;;;4.34;100.00;100499.09;4990580;28;20646;-76
2022/12/28 02:05:18;;;;;;;7.97;2.90;;;;;;;4.30;100.00;100483.59;4991471;28;20045;-76
2022/12/28 02:07:56;;;;;;;9.73;3.90;;;;;;;4.26;100.00;100472.47;5022968;28;20040;-76
2022/12/28 02:10:23;;;;;;;12.15;3.70;;;;;;;4.26;100.00;100466.31;4988204;28;20030;-76
2022/12/28 02:12:48;;;;;;;6.22;2.45;;;;;;;4.20;100.00;100454.47;4988374;28;20026;-76
2022/12/28 02:15:14;;;;;;;12.70;2.73;;;;;;;4.21;100.00;100461.41;5001686;28;20029;-76
2022/12/28 02:17:39;;;;;;;12.43;3.30;;;;;;;4.19;100.00;100461.56;4992624;28;20514;-76
2022/12/28 02:20:06;;;;;;;10.75;3.47;;;;;;;4.14;100.00;100441.75;5008214;28;20079;-76
2022/12/28 02:22:49;;;;;;;10.32;3.75;;;;;;;4.14;100.00;100463.72;4994399;28;20041;-76
2022/12/28 02:25:38;;;;;;;7.88;3.03;;;;;;;4.12;100.00;100467.47;5008353;28;20476;-78
2022/12/28 02:28:34;;;;;;;9.18;2.67;;;;;;;4.02;100.00;100481.44;4976263;28;20881;-78
2022/12/28 02:31:07;;;;;;;5.63;2.25;;;;;;;3.96;100.00;100489.06;5023732;28;20029;-77
2022/12/28 02:33:42;;;;;;;6.97;2.53;;;;;;;3.87;100.00;100513.59;4975632;28;20420;-76
2022/12/28 02:36:16;;;;;;;11.50;2.75;;;;;;;3.83;100.00;100523.53;5007820;28;20038;-77
2022/12/28 02:38:57;;;;;;;7.80;2.63;;;;;;;3.78;100.00;100541.56;4976015;28;20048;-77
2022/12/28 02:41:24;;;;;;;10.45;2.80;;;;;;;3.79;100.00;100559.06;4991765;28;20060;-77
2022/12/28 02:43:51;;;;;;;8.63;3.25;;;;;;;3.71;100.00;100562.34;4991396;28;20048;-76
2022/12/28 02:52:39;;;;;;;7.40;2.60;;;;;;;3.54;100.00;100578.69;5022727;28;20113;-76
2022/12/28 02:56:08;;;;;;;6.38;2.60;;;;;;;3.54;100.00;100582.16;4987392;28;20388;-76
2022/12/28 02:59:10;;;;;;;10.85;2.92;;;;;;;3.49;100.00;100586.97;4970342;28;20042;-76
2022/12/28 03:02:12;;;;;;;12.15;2.92;;;;;;;3.46;100.00;100575.81;4968149;28;20089;-76
2022/12/28 03:05:02;;;;;;;11.63;3.08;;;;;;;3.45;100.00;100579.41;4986234;28;20026;-77
2022/12/28 03:10:57;;;;;;;9.80;2.65;;;;;;;3.35;100.00;100582.78;4950513;28;20043;-77
2022/12/28 03:13:42;;;;;;;17.17;4.43;;;;;;;3.32;100.00;100585.63;4935274;28;20214;-77
2022/12/28 03:16:17;;;;;;;9.07;2.97;;;;;;;3.32;100.00;100582.16;4970175;28;20057;-76
2022/12/28 03:32:48;;;;;;;11.13;3.60;;;;;;;3.19;100.00;100586.72;4969701;28;20046;-77
2022/12/28 03:35:16;;;;;;;9.50;4.18;;;;;;;3.19;100.00;100584.09;4989593;28;20099;-76
2022/12/28 03:37:59;;;;;;;9.93;2.85;;;;;;;3.14;100.00;100587.09;5026419;28;20087;-76
2022/12/28 03:40:41;;;;;;;13.68;3.92;;;;;;;3.21;100.00;100609.41;4993561;28;20040;-77
2022/12/28 03:46:52;;;;;;;10.57;4.32;;;;;;;3.17;100.00;100573.66;5014645;28;20084;-77
2022/12/28 03:49:17;;;;;;;5.95;3.95;;;;;;;3.15;100.00;100559.72;4949776;28;20066;-77
2022/12/28 03:51:47;;;;;;;12.02;4.13;;;;;;;3.12;100.00;100559.97;5001221;28;20068;-76
2022/12/28 03:54:15;;;;;;;8.30;3.95;;;;;;;3.05;100.00;100543.78;5025976;28;20091;-77
2022/12/28 03:56:49;;;;;;;9.07;4.20;;;;;;;3.08;100.00;100553.25;4992905;28;20025;-77
2022/12/28 03:59:16;;;;;;;10.95;4.00;;;;;;;3.16;100.00;100567.53;5026424;28;20025;-77
2022/12/28 04:01:46;;;;;;;13.20;3.88;;;;;;;3.12;100.00;100554.72;4998753;28;20028;-77
2022/12/28 04:04:12;;;;;;;9.90;4.47;;;;;;;3.05;100.00;100537.69;5020200;28;20030;-76
2022/12/28 04:06:37;;;;;;;15.77;4.80;;;;;;;3.05;100.00;100533.25;5005852;28;20792;-77
2022/12/28 04:09:04;;;;;;;18.17;4.32;;;;;;;3.11;100.00;100530.13;4986824;28;20037;-77
2022/12/28 04:11:31;;;;;;;16.15;4.13;;;;;;;3.12;100.00;100525.69;4993301;28;20033;-77
2022/12/28 04:13:58;;;;;;;9.45;4.07;;;;;;;3.07;100.00;100522.56;5009537;28;20065;-78
2022/12/28 04:16:27;;;;;;;8.02;4.13;;;;;;;3.09;100.00;100520.63;4993540;28;20091;-77
2022/12/28 04:18:52;;;;;;;11.02;5.07;;;;;;;3.11;100.00;100511.66;4990523;28;20057;-77
2022/12/28 04:21:18;;;;;;;9.20;4.53;;;;;;;3.13;100.00;100506.25;4999036;28;20410;-77
2022/12/28 04:23:44;;;;;;;13.05;4.35;;;;;;;3.05;100.00;100495.47;5027161;28;20032;-77
2022/12/28 04:26:16;;;;;;;16.30;5.40;;;;;;;3.04;100.00;100491.16;5003323;28;20415;-77
2022/12/28 04:28:43;;;;;;;13.15;5.47;;;;;;;3.14;100.00;100502.66;5004866;28;20926;-76
2022/12/28 04:31:19;;;;;;;8.13;4.22;;;;;;;3.09;100.00;100496.88;4981438;28;20124;-77
2022/12/28 04:33:55;;;;;;;10.68;4.75;;;;;;;3.14;100.00;100489.47;4989460;28;20029;-77
2022/12/28 04:36:20;;;;;;;8.63;4.40;;;;;;;3.10;100.00;100467.78;4992418;28;20034;-77
2022/12/28 04:38:48;;;;;;;7.85;4.15;;;;;;;3.09;100.00;100462.59;5000868;28;20044;-77
2022/12/28 04:41:14;;;;;;;9.55;4.68;;;;;;;3.06;100.00;100458.41;4989230;28;20033;-77
2022/12/28 04:43:39;;;;;;;7.13;4.50;;;;;;;3.11;100.00;100461.56;5026595;28;20043;-76
2022/12/28 04:46:08;;;;;;;9.10;4.75;;;;;;;3.08;100.00;100447.75;5014084;28;20088;-77
2022/12/28 04:48:35;;;;;;;10.15;3.63;;;;;;;3.10;100.00;100424.72;5000681;28;20032;-77
2022/12/28 04:51:19;;;;;;;;;;;;;;;3.13;100.00;100433.22;5024974;28;20388;-77
2022/12/28 04:53:45;;;;;;;10.27;4.00;;;;;;;3.07;100.00;100407.34;5004893;28;19920;-77
2022/12/28 04:56:11;;;;;;;10.98;3.92;;;;;;;3.09;100.00;100418.63;4991860;28;20041;-78
2022/12/28 04:58:37;;;;;;;;;;;;;;;3.11;100.00;100426.38;5015646;28;20045;-77
2022/12/28 05:01:04;;;;;;;11.82;4.65;;;;;;;3.05;100.00;100409.28;5008460;28;19947;-76
2022/12/28 05:03:30;;;;;;;9.57;4.75;;;;;;;2.96;100.00;100402.91;5007347;28;20057;-77
2022/12/28 05:06:00;;;;;;;5.60;3.50;;;;;;;3.08;100.00;100406.38;5006595;28;20574;-77
2022/12/28 05:08:25;;;;;;;15.35;4.63;;;;;;;3.07;100.00;100409.16;4994901;28;20398;-77
2022/12/28 05:10:50;;;;;;;8.53;3.93;;;;;;;3.07;100.00;100399.44;4993036;28;20045;-77
2022/12/28 05:13:16;;;;;;;6.87;4.67;;;;;;;3.02;100.00;100391.06;4996906;28;20269;-76
2022/12/28 05:15:41;;;;;;;13.63;4.43;;;;;;;3.04;100.00;100397.03;5007080;28;20068;-77
2022/12/28 05:18:06;;;;;;;7.03;3.63;;;;;;;3.11;100.00;100405.28;4996988;28;20049;-77
2022/12/28 05:20:32;;;;;;;8.37;4.00;;;;;;;2.94;100.00;100361.81;5020438;28;20029;-77
2022/12/28 05:22:57;;;;;;;8.53;3.67;;;;;;;3.03;100.00;100376.06;4990391;28;20045;-77
2022/12/28 05:25:23;;;;;;;25.80;5.57;;;;;;;3.06;100.00;100370.53;4989329;28;20355;-77
2022/12/28 05:27:48;;;;;;;11.68;4.78;;;;;;;3.03;100.00;100366.34;5008088;28;20065;-77
2022/12/28 05:30:13;;;;;;;9.90;3.67;;;;;;;3.07;100.00;100372.22;4991523;28;20554;-77
2022/12/28 05:32:39;;;;;;;11.82;3.70;;;;;;;3.00;100.00;100371.88;4990757;28;20148;-76
2022/12/28 05:35:04;;;;;;;7.60;3.27;;;;;;;2.93;100.00;100346.97;5002765;28;20072;-76
2022/12/28 05:37:30;;;;;;;5.03;3.17;;;;;;;3.01;100.00;100360.34;4990148;28;20392;-76
2022/12/28 05:39:55;;;;;;;11.40;4.87;;;;;;;2.97;100.00;100351.00;5022823;28;20065;-77
2022/12/28 05:42:20;;;;;;;6.53;3.17;;;;;;;2.99;100.00;100341.19;5013056;28;20042;-77
2022/12/28 05:44:46;;;;;;;8.77;3.50;;;;;;;2.95;100.00;100342.41;5011582;28;20069;-77
2022/12/28 05:47:12;;;;;;;11.38;4.10;;;;;;;2.94;100.00;100331.00;4991336;28;20057;-77
2022/12/28 05:49:38;;;;;;;8.40;4.60;;;;;;;2.92;100.00;100332.09;4992248;28;20033;-77
2022/12/28 05:52:03;;;;;;;9.80;4.45;;;;;;;2.88;100.00;100320.97;4992487;28;20531;-76
2022/12/28 05:54:28;;;;;;;6.72;3.78;;;;;;;2.90;100.00;100334.88;4988856;28;20034;-75
2022/12/28 05:56:54;;;;;;;10.70;4.70;;;;;;;2.91;100.00;100333.88;4994689;28;20376;-76
2022/12/28 05:59:19;;;;;;;10.30;4.67;;;;;;;2.88;100.00;100328.00;5000689;28;20038;-76
2022/12/28 06:01:44;;;;;;;9.67;5.03;;;;;;;2.88;100.00;100323.59;4991715;28;20029;-76
2022/12/28 06:04:16;;;;;;;8.37;4.27;;;;;;;2.91;100.00;100322.50;4996565;28;20758;-76
2022/12/28 06:06:42;;;;;;;9.73;4.90;;;;;;;2.88;100.00;100323.59;5016058;28;20121;-76
2022/12/28 06:09:07;;;;;;;7.55;4.68;;;;;;;2.92;100.00;100322.38;4994961;28;20073;-76
2022/12/28 06:11:33;;;;;;;8.27;4.27;;;;;;;2.89;100.00;100320.00;5014304;28;20511;-76
2022/12/28 06:13:59;;;;;;;10.43;5.40;;;;;;;2.96;100.00;100329.06;5009665;28;20268;-77
2022/12/28 06:16:27;;;;;;;7.82;4.72;;;;;;;2.96;100.00;100328.25;5008070;28;20044;-77
2022/12/28 06:18:53;;;;;;;8.48;4.60;;;;;;;2.94;100.00;100302.00;5020838;28;20022;-76
2022/12/28 06:21:24;;;;;;;7.63;3.80;;;;;;;2.99;100.00;100295.50;5024501;28;20041;-76
2022/12/28 06:23:50;;;;;;;8.32;3.80;;;;;;;2.99;100.00;100293.72;4994595;28;20546;-77
2022/12/28 06:26:20;;;;;;;10.15;4.07;;;;;;;3.06;100.00;100304.59;5016501;28;20017;-76
2022/12/28 06:28:47;;;;;;;9.98;4.28;;;;;;;3.11;100.00;100278.69;5006041;28;20033;-76
2022/12/28 06:31:13;;;;;;;5.97;4.40;;;;;;;3.09;100.00;100275.31;4995174;28;20510;-76
2022/12/28 06:33:40;;;;;;;9.73;3.97;;;;;;;3.15;100.00;100264.28;5013434;28;20124;-76
2022/12/28 06:36:15;;;;;;;6.57;3.55;;;;;;;3.15;100.00;100259.84;5007777;28;20511;-76
2022/12/28 06:38:41;;;;;;;6.33;3.67;;;;;;;3.12;100.00;100261.91;4997299;28;20044;-76
2022/12/28 06:41:08;;;;;;;12.38;6.00;;;;;;;3.13;100.00;100271.47;5005416;28;20018;-76
2022/12/28 06:43:36;;;;;;;7.22;4.70;;;;;;;3.13;100.00;100253.00;5010726;28;20040;-76
2022/12/28 06:46:02;;;;;;;12.15;4.25;;;;;;;3.14;100.00;100255.53;5022112;28;20037;-76
2022/12/28 06:48:28;;;;;;;9.93;3.90;;;;;;;3.16;100.00;100272.09;4998549;28;20048;-76
2022/12/28 06:50:59;;;;;;;12.75;5.72;;;;;;;3.17;100.00;100280.81;5012490;28;20080;-77
2022/12/28 06:53:31;;;;;;;13.55;4.00;;;;;;;3.19;100.00;100270.16;5024820;28;20479;-76
2022/12/28 06:55:59;;;;;;;8.27;4.10;;;;;;;3.19;100.00;100271.00;5019702;23;20080;-86
2022/12/28 06:58:26;;;;;;;5.82;3.97;;;;;;;3.20;100.00;100267.38;5018459;28;20038;-87
2022/12/28 07:00:53;;;;;;;5.95;4.18;;;;;;;3.21;100.00;100263.78;4995884;28;20084;-86
2022/12/28 07:03:19;;;;;;;11.18;4.65;;;;;;;3.22;100.00;100252.25;5012452;28;20034;-88
2022/12/28 07:05:44;;;;;;;5.75;4.13;;;;;;;3.19;100.00;100249.88;4995346;28;20030;-88
2022/12/28 07:08:10;;;;;;;7.33;4.03;;;;;;;3.16;100.00;100236.94;4987378;28;20073;-87
2022/12/28 07:10:36;;;;;;;7.30;3.93;;;;;;;3.32;100.00;100249.69;4979507;28;20045;-86
2022/12/28 07:13:02;;;;;;;6.95;4.60;;;;;;;3.36;100.00;100254.56;4995272;28;20038;-87
2022/12/28 07:15:28;;;;;;;5.25;4.45;;;;;;;3.37;100.00;100240.44;4999913;28;20131;-87
2022/12/28 07:17:53;;;;;;;12.03;4.53;;;;;;;3.43;100.00;100248.81;4992407;28;20058;-88
2022/12/28 07:20:18;;;;;;;9.90;5.10;;;;;;;3.41;100.00;100227.81;4982079;28;20634;-89
2022/12/28 07:22:44;;;;;;;6.00;3.93;;;;;;;3.50;100.00;100236.75;4980187;28;20030;-86
2022/12/28 07:25:09;;;;;;;7.40;4.60;;;;;;;3.48;100.00;100228.13;4986063;28;20081;-87
2022/12/28 07:27:35;;;;;;;8.35;6.03;;;;;;;3.54;100.00;100222.34;4995340;28;20037;-87
2022/12/28 07:30:01;;;;;;;7.65;5.03;;;;;;;3.58;100.00;100234.28;4973035;28;20421;-88
2022/12/28 07:32:26;;;;;;;8.27;5.22;;;;;;;3.55;100.00;100226.66;4987357;28;20128;-85
2022/12/28 07:34:51;;;;;;;8.48;5.47;;;;;;;3.61;100.00;100226.13;4960852;28;20034;-89
2022/12/28 07:37:17;;;;;;;6.70;4.82;;;;;;;3.66;100.00;100223.94;5017666;23;20865;-73
2022/12/28 07:39:42;;;;;;;8.03;5.50;;;;;;;3.69;100.00;100221.03;5018827;28;20044;-73
2022/12/28 07:42:10;;;;;;;7.37;4.77;;;;;;;3.68;100.00;100222.00;5026880;28;20280;-72
2022/12/28 07:44:40;;;;;;;6.75;4.20;;;;;;;4.10;100.00;100229.84;5007859;28;20064;-73
2022/12/28 07:47:06;;;;;;;9.82;4.97;;;;;;;3.97;100.00;100211.56;5006832;28;20763;-72
2022/12/28 07:49:31;;;;;;;7.93;5.88;;;;;;;3.86;100.00;100205.53;5007476;28;20041;-73
2022/12/28 07:51:56;;;;;;;7.13;3.77;;;;;;;3.92;100.00;100207.66;5015742;28;20048;-73
2022/12/28 07:54:22;;;;;;;8.57;4.97;;;;;;;3.83;100.00;100206.63;5009903;28;20045;-73
2022/12/28 07:56:47;;;;;;;6.93;5.23;;;;;;;3.87;100.00;100213.34;4979306;28;20038;-73
2022/12/28 07:59:12;;;;;;;6.40;4.37;;;;;;;3.90;100.00;100199.84;5006936;28;20038;-73
2022/12/28 08:01:38;;;;;;;7.53;4.63;;;;;;;3.89;100.00;100200.00;4988256;28;20042;-73
2022/12/28 08:04:10;;;;;;;6.40;4.88;;;;;;;3.93;100.00;100204.91;5006602;28;20033;-73
2022/12/28 08:06:39;;;;;;;8.10;4.97;;;;;;;3.93;100.00;100188.19;5006273;28;20029;-73
2022/12/28 08:09:06;;;;;;;6.47;4.50;;;;;;;3.94;100.00;100184.59;5006699;28;20071;-73
2022/12/28 08:11:34;;;;;;;9.70;6.20;;;;;;;3.96;100.00;100196.69;5001462;28;20038;-73
2022/12/28 08:14:00;;;;;;;7.50;4.57;;;;;;;4.00;100.00;100181.41;5017607;28;20037;-73
2022/12/28 08:16:30;;;;;;;8.38;5.10;;;;;;;4.01;100.00;100193.66;5022379;28;20399;-73
2022/12/28 08:18:56;;;;;;;10.27;4.95;;;;;;;4.05;100.00;100188.94;5005814;28;20034;-73
2022/12/28 08:21:30;;;;;;;7.63;4.78;;;;;;;4.10;100.00;100187.56;4988822;28;20077;-73
2022/12/28 08:23:56;;;;;;;7.72;4.68;;;;;;;4.11;100.00;100183.94;5006473;28;20033;-73
2022/12/28 08:26:24;;;;;;;8.15;5.10;;;;;;;4.15;100.00;100176.59;5006237;28;20044;-73
2022/12/28 08:28:56;;;;;;;10.13;5.80;;;;;;;4.23;100.00;100182.03;5006157;28;20065;-73
2022/12/28 08:31:25;;;;;;;8.77;5.05;;;;;;;4.23;100.00;100177.56;5012415;28;20084;-73
2022/12/28 08:33:52;;;;;;;6.20;4.65;;;;;;;4.27;100.00;100178.16;5006013;28;20025;-73
2022/12/28 08:36:17;;;;;;;6.50;4.45;;;;;;;4.29;100.00;100175.38;5005973;28;20041;-73
2022/12/28 08:38:43;;;;;;;7.10;4.57;;;;;;;4.32;100.00;100170.66;5006008;28;20033;-73
2022/12/28 08:41:16;;;;;;;6.40;3.58;;;;;;;4.39;100.00;100170.94;4968795;28;20034;-73
2022/12/28 08:43:42;;;;;;;6.75;4.30;;;;;;;4.39;100.00;100171.78;5017240;28;20092;-73
2022/12/28 08:46:11;;;;;;;6.35;3.97;;;;;;;4.42;100.00;100165.38;5005886;28;20032;-73
2022/12/28 08:48:37;;;;;;;7.55;4.22;;;;;;;4.48;100.00;100154.25;5006342;28;20486;-73
2022/12/28 08:51:08;;;;;;;5.47;4.00;;;;;;;4.46;100.00;100153.56;5006231;28;20037;-73
2022/12/28 08:53:34;;;;;;;6.55;5.00;;;;;;;4.50;100.00;100162.91;5001321;28;20045;-73
2022/12/28 08:56:05;;;;;;;6.03;3.67;;;;;;;4.53;100.00;100152.03;5015544;28;20045;-73
2022/12/28 08:58:30;;;;;;;6.90;4.55;;;;;;;4.58;100.00;100144.53;5006686;28;20045;-73
2022/12/28 09:00:55;;;;;;;6.37;4.73;;;;;;;4.55;100.00;100139.53;5014264;28;20033;-73
2022/12/28 09:03:21;;;;;;;6.63;3.80;;;;;;;4.62;100.00;100142.44;5003220;28;20383;-73
2022/12/28 09:05:46;;;;;;;4.93;3.50;;;;;;;4.68;100.00;100152.44;5006030;28;20077;-73
2022/12/28 09:08:11;;;;;;;5.83;4.00;;;;;;;4.72;100.00;100135.34;4972429;28;20030;-73
2022/12/28 09:10:37;;;;;;;4.80;3.13;;;;;;;4.72;100.00;100134.50;5005861;28;20815;-73
2022/12/28 09:13:02;;;;;;;7.17;4.10;;;;;;;4.78;100.00;100133.97;4998680;28;20901;-73
2022/12/28 09:15:27;;;;;;;5.50;3.47;;;;;;;4.86;100.00;100128.78;5007661;28;20030;-73
2022/12/28 09:17:53;;;;;;;4.30;3.23;;;;;;;4.88;100.00;100116.25;5005905;28;20048;-73
2022/12/28 09:20:18;;;;;;;4.73;3.30;;;;;;;4.95;100.00;100137.72;5017391;28;20041;-73
2022/12/28 09:22:43;;;;;;;4.33;3.20;;;;;;;5.02;100.00;100129.06;5000436;28;20030;-73
2022/12/28 09:25:09;;;;;;;4.90;3.60;;;;;;;5.02;100.00;100137.00;5004975;28;20030;-73
2022/12/28 09:27:34;;;;;;;5.23;3.03;;;;;;;5.08;100.00;100119.72;5015861;28;20030;-73
2022/12/28 09:29:59;;;;;;;4.60;3.40;;;;;;;5.13;100.00;100122.78;5007883;28;20494;-73
2022/12/28 09:32:25;;;;;;;6.47;3.77;;;;;;;5.18;100.00;100125.00;5019291;28;20638;-73
2022/12/28 09:34:51;;;;;;;5.43;3.30;;;;;;;5.20;100.00;100118.59;5009425;28;20032;-73
2022/12/28 09:37:16;;;;;;;4.47;3.15;;;;;;;5.26;100.00;100131.22;5009332;28;20041;-73
2022/12/28 09:39:41;;;;;;;5.30;3.58;;;;;;;5.29;100.00;100122.16;5009629;28;20034;-73
2022/12/28 09:42:15;;;;;;;6.93;3.60;;;;;;;5.34;100.00;100134.97;5009726;28;20044;-73
2022/12/28 09:44:50;;;;;;;4.32;3.33;;;;;;;5.33;100.00;100120.91;5008718;28;20411;-73
2022/12/28 09:47:31;;;;;;;3.53;2.92;;;;;;;5.38;100.00;100133.72;4991869;28;20034;-73
2022/12/28 09:50:15;;;;;;;3.97;2.90;;;;;;;5.40;100.00;100118.50;5011780;28;20034;-73
2022/12/28 09:53:05;;;;;;;6.07;3.40;;;;;;;5.45;100.00;100126.84;5004772;28;20449;-73
2022/12/28 09:55:37;;;;;;;5.68;3.42;;;;;;;5.48;100.00;100127.41;5020946;28;20478;-73
2022/12/28 09:58:09;;;;;;;5.68;3.47;;;;;;;5.50;100.00;100119.31;4999935;28;20036;-73
2022/12/28 10:00:42;;;;;;;5.15;3.63;;;;;;;5.54;100.00;100130.47;5009493;28;20052;-73
2022/12/28 10:03:39;;;;;;;6.22;4.00;;;;;;;5.57;100.00;100119.56;5009441;28;20072;-73
2022/12/28 10:06:23;;;;;;;6.80;4.20;;;;;;;5.61;100.00;100103.25;4995760;28;20037;-73
2022/12/28 10:08:55;;;;;;;7.13;4.22;;;;;;;5.69;100.00;100118.41;5025503;28;20492;-73
2022/12/28 10:11:28;;;;;;;7.75;5.10;;;;;;;5.69;100.00;100111.31;5018878;28;20045;-73
2022/12/28 10:13:56;;;;;;;7.32;4.82;;;;;;;5.73;100.00;100101.22;5005806;28;20056;-73
2022/12/28 10:16:24;;;;;;;7.72;4.57;;;;;;;5.77;100.00;100099.97;5008106;28;20029;-73
2022/12/28 10:18:50;;;;;;;7.07;4.55;;;;;;;5.79;100.00;100108.59;4993349;28;20306;-73
2022/12/28 10:21:20;;;;;;;7.28;4.90;;;;;;;5.84;100.00;100116.13;4990749;28;20467;-73
2022/12/28 10:23:49;;;;;;;7.47;4.80;;;;;;;5.86;100.00;100114.16;5017465;28;20061;-73
2022/12/28 10:26:17;;;;;;;7.60;4.65;;;;;;;5.90;100.00;100119.00;5027941;28;20037;-73
2022/12/28 10:28:48;;;;;;;6.93;4.72;;;;;;;5.90;100.00;100113.72;5015699;28;20111;-73
2022/12/28 10:31:15;;;;;;;6.93;4.50;;;;;;;5.91;100.00;100115.38;5008186;28;20038;-73
2022/12/28 10:33:50;;;;;;;7.68;4.57;;;;;;;5.95;100.00;100112.44;5008050;28;20100;-73
2022/12/28 10:36:17;;;;;;;8.68;5.38;;;;;;;6.00;100.00;100111.03;5008278;28;20033;-73
2022/12/28 10:38:49;;;;;;;9.57;5.03;;;;;;;5.97;100.00;100105.19;5003553;28;20682;-73
2022/12/28 10:41:17;;;;;;;8.05;4.88;;;;;;;6.01;100.00;100101.25;5007908;28;20062;-73
2022/12/28 10:43:50;;;;;;;8.63;5.82;;;;;;;6.05;100.00;100102.63;4974801;28;20370;-73
2022/12/28 10:46:18;;;;;;;9.55;5.93;;;;;;;6.08;100.00;100107.63;4990705;28;20037;-73
2022/12/28 10:48:56;;;;;;;9.95;6.03;;;;;;;6.04;100.00;100098.31;5001975;28;20070;-73
2022/12/28 10:51:24;;;;;;;13.20;8.10;;;;;;;6.11;100.00;100086.13;4991776;28;20052;-74
2022/12/28 10:53:53;;;;;;;39.92;24.20;;;;;;;6.19;100.00;100088.88;5013098;28;20041;-73
2022/12/28 10:56:25;;;;;;;11.45;7.25;;;;;;;6.18;100.00;100100.47;4990613;28;20100;-73
2022/12/28 10:58:52;;;;;;;9.98;7.20;;;;;;;6.19;100.00;100091.53;5013024;28;20513;-73
2022/12/28 11:01:25;;;;;;;10.80;7.32;;;;;;;6.21;100.00;100081.59;4980477;28;20044;-74
2022/12/28 11:04:17;;;;;;;11.35;7.68;;;;;;;6.26;100.00;100079.34;4999152;28;20045;-74
2022/12/28 11:07:00;;;;;;;9.30;6.25;;;;;;;6.32;100.00;100092.00;5014292;28;20029;-74
2022/12/28 11:09:30;;;;;;;9.90;6.65;;;;;;;6.30;100.00;100079.88;5007991;28;20513;-73
2022/12/28 11:12:16;;;;;;;10.48;6.88;;;;;;;6.35;100.00;100082.91;4989953;28;20046;-74
2022/12/28 11:14:41;;;;;;;7.43;4.93;;;;;;;6.36;100.00;100067.81;5007711;28;20046;-73
2022/12/28 11:17:19;;;;;;;9.45;5.90;;;;;;;6.42;100.00;100083.13;5007757;28;20036;-74
2022/12/28 11:19:46;;;;;;;9.23;5.15;;;;;;;6.42;100.00;100083.13;5006409;28;20118;-73
2022/12/28 11:22:16;;;;;;;8.75;5.07;;;;;;;6.41;100.00;100084.09;4990077;28;20049;-73
2022/12/28 11:24:41;;;;;;;8.88;5.38;;;;;;;6.45;100.00;100085.47;5007733;28;20026;-73
2022/12/28 11:27:12;;;;;;;8.02;4.85;;;;;;;6.50;100.00;100073.41;5007638;28;20042;-73
2022/12/28 11:29:44;;;;;;;6.82;4.50;;;;;;;6.53;100.00;100075.78;5007842;28;20081;-73
2022/12/28 11:32:17;;;;;;;7.38;5.13;;;;;;;6.55;100.00;100073.81;5007372;28;20034;-73
2022/12/28 11:34:43;;;;;;;9.68;6.53;;;;;;;6.62;100.00;100075.84;5007500;28;20061;-73
2022/12/28 11:37:12;;;;;;;48.08;19.98;;;;;;;6.71;100.00;100082.88;5007297;28;20034;-73
2022/12/28 11:39:46;;;;;;;8.13;5.15;;;;;;;6.69;100.00;100079.53;5005284;28;20076;-73
2022/12/28 11:42:52;;;;;;;8.50;5.68;;;;;;;6.69;100.00;100085.66;5007278;28;20033;-73
2022/12/28 11:45:48;;;;;;;8.57;5.22;;;;;;;6.66;100.00;100078.03;4941551;29;20179;-73
2022/12/28 11:48:41;;;;;;;8.38;5.78;;;;;;;6.74;100.00;100078.09;4946849;29;20039;-75
2022/12/28 11:51:18;;;;;;;8.65;6.05;;;;;;;6.82;100.00;100079.16;4930448;29;20405;-73
2022/12/28 11:53:43;;;;;;;;;;;;;;;6.86;100.00;100075.19;4964595;28;20324;-73
2022/12/28 11:56:11;;;;;;;9.82;6.13;;;;;;;6.85;100.00;100073.53;4957505;28;19911;-73
2022/12/28 11:58:39;;;;;;;12.70;7.13;;;;;;;6.82;100.00;100061.41;4929940;29;20251;-73
2022/12/28 12:01:07;;;;;;;11.45;6.50;;;;;;;6.82;100.00;100066.72;4945992;29;20035;-73